createdAt,value
2018-11-02T00:00:03.119Z,0
2018-11-02T00:05:02.958Z,0
2018-11-02T00:10:02.706Z,0
2018-11-02T00:15:02.404Z,0
2018-11-02T00:20:03.144Z,0
2018-11-02T00:25:02.774Z,0
2018-11-02T00:30:02.519Z,0
2018-11-02T00:35:03.148Z,0
2018-11-02T00:40:02.861Z,0
2018-11-02T00:45:02.519Z,0
2018-11-02T00:50:03.283Z,0
2018-11-02T00:55:02.872Z,0
2018-11-02T01:00:02.508Z,0
2018-11-02T01:05:03.016Z,0
2018-11-02T01:10:02.841Z,0
2018-11-02T01:15:02.499Z,0
2018-11-02T01:20:03.164Z,0
2018-11-02T01:25:02.798Z,0
2018-11-02T01:30:02.409Z,0
2018-11-02T01:35:03.160Z,0
2018-11-02T01:40:02.858Z,0
2018-11-02T01:45:02.997Z,0
2018-11-02T01:50:02.498Z,0
2018-11-02T01:55:03.144Z,0
2018-11-02T02:00:02.761Z,0
2018-11-02T02:05:02.377Z,0
2018-11-02T02:10:03.170Z,0
2018-11-02T02:15:02.754Z,0
2018-11-02T02:20:02.654Z,0
2018-11-02T02:25:03.595Z,0
2018-11-02T02:30:02.510Z,0
2018-11-02T02:35:03.389Z,0
2018-11-02T02:40:03.511Z,0
2018-11-02T02:45:03.361Z,0
2018-11-02T02:50:03.077Z,0
2018-11-02T02:55:03.091Z,0
2018-11-02T03:00:02.524Z,0
2018-11-02T03:05:03.279Z,0
2018-11-02T03:10:03.096Z,0
2018-11-02T03:15:02.701Z,0
2018-11-02T03:20:03.373Z,0
2018-11-02T03:25:03.004Z,0
2018-11-02T03:30:02.670Z,0
2018-11-02T03:35:03.341Z,0
2018-11-02T03:40:03.213Z,0
2018-11-02T03:45:02.860Z,0
2018-11-02T03:50:02.894Z,0
2018-11-02T03:55:02.457Z,0
2018-11-02T04:00:02.949Z,0
2018-11-02T04:05:02.771Z,0
2018-11-02T04:10:02.716Z,0
2018-11-02T04:15:03.371Z,0
2018-11-02T04:20:03.033Z,0
2018-11-02T04:25:02.749Z,0
2018-11-02T04:30:02.395Z,0
2018-11-02T04:35:03.110Z,0
2018-11-02T04:40:02.801Z,0
2018-11-02T04:45:02.489Z,0
2018-11-02T04:50:03.124Z,0
2018-11-02T04:55:02.822Z,0
2018-11-02T05:00:03.371Z,0
2018-11-02T05:05:02.971Z,0
2018-11-02T05:10:02.976Z,0
2018-11-02T05:15:02.825Z,0
2018-11-02T05:20:02.473Z,0
2018-11-02T05:25:03.058Z,0
2018-11-02T05:30:02.775Z,0
2018-11-02T05:35:02.546Z,0
2018-11-02T05:40:03.236Z,0
2018-11-02T05:45:02.864Z,0
2018-11-02T05:50:02.545Z,0
2018-11-02T05:55:03.374Z,0
2018-11-02T06:00:02.932Z,1
2018-11-02T06:05:02.530Z,4
2018-11-02T06:10:03.489Z,10
2018-11-02T06:15:03.117Z,22
2018-11-02T06:20:02.846Z,39
2018-11-02T06:25:02.470Z,60
2018-11-02T06:30:03.133Z,84
2018-11-02T06:35:02.776Z,149
2018-11-02T06:40:02.509Z,156
2018-11-02T06:45:03.352Z,210
2018-11-02T06:50:03.226Z,414
2018-11-02T06:55:03.265Z,648
2018-11-02T07:00:04.220Z,761
2018-11-02T07:05:02.664Z,1000
2018-11-02T07:10:02.553Z,1000
2018-11-02T07:15:03.324Z,1000
2018-11-02T07:20:03.252Z,948
2018-11-02T07:25:03.056Z,921
2018-11-02T07:30:02.447Z,894
2018-11-02T07:35:03.224Z,1000
2018-11-02T07:40:02.909Z,1000
2018-11-02T07:45:02.616Z,841
2018-11-02T07:50:03.312Z,1000
2018-11-02T07:55:02.970Z,1000
2018-11-02T08:00:02.820Z,814
2018-11-02T08:05:02.435Z,1000
2018-11-02T08:10:03.126Z,1000
2018-11-02T08:15:02.692Z,2000
2018-11-02T08:20:03.368Z,1000
2018-11-02T08:25:03.015Z,1000
2018-11-02T08:30:03.027Z,1000
2018-11-02T08:35:02.557Z,1000
2018-11-02T08:40:03.177Z,1000
2018-11-02T08:45:02.783Z,1000
2018-11-02T08:50:03.337Z,2000
2018-11-02T08:55:02.891Z,1000
2018-11-02T09:00:02.730Z,1000
2018-11-02T09:05:02.923Z,1000
2018-11-02T09:10:03.129Z,1000
2018-11-02T09:15:02.718Z,3000
2018-11-02T09:20:02.407Z,5000
2018-11-02T09:25:03.014Z,4000
2018-11-02T09:30:02.667Z,4000
2018-11-02T09:35:03.270Z,8000
2018-11-02T09:40:02.898Z,5000
2018-11-02T09:45:02.531Z,9000
2018-11-02T09:50:03.171Z,6000
2018-11-02T09:55:02.851Z,5000
2018-11-02T10:00:02.547Z,5000
2018-11-02T10:05:03.152Z,4000
2018-11-02T10:10:02.797Z,7000
2018-11-02T10:15:02.540Z,16000
2018-11-02T10:20:03.187Z,6000
2018-11-02T10:25:02.757Z,6000
2018-11-02T10:30:02.396Z,6000
2018-11-02T10:35:03.031Z,8000
2018-11-02T10:40:02.717Z,6000
2018-11-02T10:45:03.606Z,27000
2018-11-02T10:50:02.997Z,6000
2018-11-02T10:55:02.681Z,30000
2018-11-02T11:00:03.372Z,14000
2018-11-02T11:05:03.023Z,12000
2018-11-02T11:10:02.728Z,3000
2018-11-02T11:15:02.465Z,4000
2018-11-02T11:20:03.161Z,4000
2018-11-02T11:25:02.799Z,3000
2018-11-02T11:30:02.478Z,3000
2018-11-02T11:35:03.123Z,3000
2018-11-02T11:40:02.781Z,3000
2018-11-02T11:45:02.552Z,3000
2018-11-02T11:50:03.206Z,2000
2018-11-02T11:55:02.852Z,2000
2018-11-02T12:00:02.511Z,2000
2018-11-02T12:05:03.426Z,2000
2018-11-02T12:10:02.834Z,2000
2018-11-02T12:15:02.479Z,17000
2018-11-02T12:20:03.125Z,14000
2018-11-02T12:25:03.058Z,3000
2018-11-02T12:30:02.762Z,3000
2018-11-02T12:35:02.447Z,3000
2018-11-02T12:40:03.223Z,25000
2018-11-02T12:45:02.909Z,30000
2018-11-02T12:50:02.717Z,6000
2018-11-02T12:55:02.923Z,3000
2018-11-02T13:00:02.706Z,24000
2018-11-02T13:05:03.312Z,25000
2018-11-02T13:10:02.992Z,25000
2018-11-02T13:15:02.612Z,24000
2018-11-02T13:20:02.543Z,22000
2018-11-02T13:25:02.456Z,22000
2018-11-02T13:30:03.409Z,16000
2018-11-02T13:35:02.706Z,21000
2018-11-02T13:40:02.443Z,21000
2018-11-02T13:45:03.113Z,3000
2018-11-02T13:50:02.834Z,19000
2018-11-02T13:55:02.503Z,20000
2018-11-02T14:00:03.328Z,21000
2018-11-02T14:05:02.766Z,13000
2018-11-02T14:10:02.489Z,19000
2018-11-02T14:15:02.637Z,18000
2018-11-02T14:20:03.369Z,18000
2018-11-02T14:25:03.001Z,15000
2018-11-02T14:30:02.690Z,1000
2018-11-02T14:35:03.363Z,15000
2018-11-02T14:40:03.046Z,14000
2018-11-02T14:45:02.668Z,11000
2018-11-02T14:50:03.318Z,9000
2018-11-02T14:55:03.052Z,6000
2018-11-02T15:00:02.833Z,2000
2018-11-02T15:05:02.480Z,1000
2018-11-02T15:10:03.271Z,2000
2018-11-02T15:15:02.894Z,1000
2018-11-02T15:20:02.602Z,1000
2018-11-02T15:25:03.231Z,1000
2018-11-02T15:30:02.836Z,1000
2018-11-02T15:35:02.510Z,985
2018-11-02T15:40:03.313Z,855
2018-11-02T15:45:02.908Z,726
2018-11-02T15:50:02.572Z,599
2018-11-02T15:55:02.416Z,463
2018-11-02T16:00:03.086Z,363
2018-11-02T16:05:02.777Z,131
2018-11-02T16:10:02.723Z,82
2018-11-02T16:15:02.458Z,65
2018-11-02T16:20:03.309Z,51
2018-11-02T16:25:02.595Z,41
2018-11-02T16:30:03.442Z,26
2018-11-02T16:35:02.569Z,12
2018-11-02T16:40:03.249Z,5
2018-11-02T16:45:03.004Z,2
2018-11-02T16:50:02.862Z,1
2018-11-02T16:55:02.504Z,0
2018-11-02T17:00:03.196Z,0
2018-11-02T17:05:03.105Z,0
2018-11-02T17:10:02.669Z,0
2018-11-02T17:15:03.521Z,0
2018-11-02T17:20:03.319Z,0
2018-11-02T17:25:03.326Z,0
2018-11-02T17:30:02.867Z,0
2018-11-02T17:35:02.744Z,0
2018-11-02T17:40:02.476Z,0
2018-11-02T17:45:03.093Z,0
2018-11-02T17:50:02.736Z,0
2018-11-02T17:55:03.357Z,0
2018-11-02T18:00:03.007Z,0
2018-11-02T18:05:02.673Z,0
2018-11-02T18:10:03.392Z,0
2018-11-02T18:15:03.044Z,0
2018-11-02T18:20:02.768Z,0
2018-11-02T18:25:03.424Z,0
2018-11-02T18:30:03.151Z,0
2018-11-02T18:35:03.110Z,0
2018-11-02T18:40:03.190Z,0
2018-11-02T18:45:02.842Z,0
2018-11-02T18:50:02.484Z,0
2018-11-02T18:55:03.146Z,0
2018-11-02T19:00:02.792Z,0
2018-11-02T19:05:02.701Z,0
2018-11-02T19:10:02.425Z,0
2018-11-02T19:15:03.115Z,0
2018-11-02T19:20:03.474Z,0
2018-11-02T19:25:02.453Z,0
2018-11-02T19:30:03.317Z,0
2018-11-02T19:35:03.578Z,0
2018-11-02T19:40:02.715Z,0
2018-11-02T19:45:02.665Z,0
2018-11-02T19:50:02.450Z,0
2018-11-02T19:55:03.483Z,0
2018-11-02T20:00:02.769Z,0
2018-11-02T20:05:02.566Z,0
2018-11-02T20:10:02.411Z,0
2018-11-02T20:15:03.082Z,0
2018-11-02T20:20:03.059Z,0
2018-11-02T20:25:02.870Z,0
2018-11-02T20:30:02.640Z,0
2018-11-02T20:35:03.440Z,0
2018-11-02T20:40:03.371Z,0
2018-11-02T20:45:02.977Z,0
2018-11-02T20:50:02.975Z,0
2018-11-02T20:55:02.970Z,0
2018-11-02T21:00:02.965Z,0
2018-11-02T21:05:02.590Z,0
2018-11-02T21:10:03.407Z,0
2018-11-02T21:15:03.715Z,0
2018-11-02T21:20:02.566Z,0
2018-11-02T21:25:03.193Z,0
2018-11-02T21:30:02.849Z,0
2018-11-02T21:35:02.597Z,0
2018-11-02T21:40:02.442Z,0
2018-11-02T21:45:03.322Z,0
2018-11-02T21:50:03.163Z,0
2018-11-02T21:55:02.978Z,0
2018-11-02T22:00:02.811Z,0
2018-11-02T22:05:02.969Z,0
2018-11-02T22:10:02.945Z,0
2018-11-02T22:15:02.635Z,0
2018-11-02T22:20:03.555Z,0
2018-11-02T22:25:03.283Z,0
2018-11-02T22:30:03.345Z,0
2018-11-02T22:35:03.019Z,0
2018-11-02T22:40:02.844Z,0
2018-11-02T22:45:02.765Z,0
2018-11-02T22:50:02.469Z,0
2018-11-02T22:55:03.076Z,0
2018-11-02T23:00:02.728Z,0
2018-11-02T23:05:02.653Z,0
2018-11-02T23:10:03.378Z,0
2018-11-02T23:15:03.019Z,0
2018-11-02T23:20:02.985Z,0
2018-11-02T23:25:02.621Z,0
2018-11-02T23:30:03.625Z,0
2018-11-02T23:35:03.064Z,0
2018-11-02T23:40:02.849Z,0
2018-11-02T23:45:02.807Z,0
2018-11-02T23:50:03.284Z,0
2018-11-02T23:55:02.930Z,0
